Time;durP1;ratioP1;P1;durP2;ratioP2;P2;SDS_P1;SDS_P2;PMS_P1;PMS_P2;Temp;Humidity;BMP_temperature;BMP_pressure;BME280_temperature;BME280_humidity;BME280_pressure;Samples;Min_cycle;Max_cycle;Signal;HPM_P1;HPM_P2
2021/08/08 00:03:02;;;;;;;7.75;2.97;;;;;;;14.73;100.00;100013.13;6205172;28;20058;-76
2021/08/08 00:06:03;;;;;;;9.10;2.42;;;;;;;14.67;100.00;100017.09;6204666;28;20042;-77
2021/08/08 00:09:05;;;;;;;6.75;2.65;;;;;;;14.61;100.00;100013.13;6204616;28;20059;-77
2021/08/08 00:12:06;;;;;;;5.38;2.38;;;;;;;14.53;100.00;100015.56;6204786;28;20054;-77
2021/08/08 00:15:10;;;;;;;7.75;2.50;;;;;;;14.50;100.00;100013.19;6204361;28;20414;-77
2021/08/08 00:18:13;;;;;;;14.85;3.33;;;;;;;14.43;100.00;100010.16;6204848;28;20074;-77
2021/08/08 00:21:14;;;;;;;12.88;2.97;;;;;;;14.38;100.00;100004.41;6205405;28;20077;-77
2021/08/08 00:24:15;;;;;;;6.60;2.78;;;;;;;14.34;100.00;100005.63;6205284;28;20046;-77
2021/08/08 00:27:18;;;;;;;5.47;2.50;;;;;;;14.32;100.00;100012.84;6205810;28;20050;-77
2021/08/08 00:30:19;;;;;;;6.68;2.88;;;;;;;14.33;100.00;100011.88;6205339;28;20066;-77
2021/08/08 00:33:23;;;;;;;7.03;2.30;;;;;;;14.30;100.00;100019.22;6205246;28;20498;-77
2021/08/08 00:36:24;;;;;;;6.13;2.45;;;;;;;14.30;100.00;100020.03;6205234;28;20135;-77
2021/08/08 00:39:25;;;;;;;5.57;2.40;;;;;;;14.28;100.00;100023.78;6205201;28;20054;-77
2021/08/08 00:42:27;;;;;;;4.60;2.55;;;;;;;14.28;100.00;100018.50;6204870;28;20050;-76
2021/08/08 00:45:28;;;;;;;6.15;2.58;;;;;;;14.29;100.00;100026.28;6203657;28;20138;-77
2021/08/08 00:48:31;;;;;;;5.53;2.25;;;;;;;14.27;100.00;100024.75;6204205;28;20062;-77
2021/08/08 00:51:34;;;;;;;9.77;2.15;;;;;;;14.27;100.00;100022.13;6203867;28;20057;-76
2021/08/08 00:54:35;;;;;;;8.77;2.40;;;;;;;14.22;100.00;100027.78;6204229;28;20054;-76
2021/08/08 00:57:36;;;;;;;7.13;1.80;;;;;;;14.24;100.00;100020.53;6202787;28;20057;-77
2021/08/08 01:00:41;;;;;;;7.10;1.80;;;;;;;14.20;100.00;100025.22;6266735;22;20053;-81
2021/08/08 01:03:45;;;;;;;4.93;1.80;;;;;;;14.18;100.00;100024.53;6252158;28;20056;-82
2021/08/08 01:06:52;;;;;;;4.57;1.92;;;;;;;14.17;100.00;100029.91;6252406;28;20069;-81
2021/08/08 01:09:55;;;;;;;2.90;1.92;;;;;;;14.22;100.00;100030.41;6252226;28;20049;-81
2021/08/08 01:12:57;;;;;;;7.90;1.60;;;;;;;14.23;100.00;100037.38;6250412;28;20049;-82
2021/08/08 01:15:59;;;;;;;3.58;1.27;;;;;;;14.25;100.00;100038.06;6251746;28;20045;-81
2021/08/08 01:19:04;;;;;;;7.95;1.50;;;;;;;14.23;100.00;100044.47;6268737;28;20531;-82
2021/08/08 01:22:07;;;;;;;3.20;1.60;;;;;;;14.24;100.00;100049.63;6272023;28;20044;-82
2021/08/08 01:25:11;;;;;;;2.08;1.15;;;;;;;14.19;100.00;100042.06;6269149;28;20053;-80
2021/08/08 01:28:13;;;;;;;2.22;1.00;;;;;;;14.23;100.00;100045.31;6276498;28;20053;-82
2021/08/08 01:31:14;;;;;;;3.58;1.15;;;;;;;14.29;100.00;100046.59;6263011;28;20050;-81
2021/08/08 01:34:16;;;;;;;4.75;1.10;;;;;;;14.37;100.00;100045.03;6275445;28;20045;-80
2021/08/08 01:37:18;;;;;;;4.10;1.33;;;;;;;14.41;100.00;100048.28;6265356;28;20052;-80
2021/08/08 01:40:25;;;;;;;4.97;1.08;;;;;;;14.35;100.00;100044.31;6270042;28;20182;-81
2021/08/08 01:43:29;;;;;;;4.00;1.15;;;;;;;14.34;100.00;100045.25;6275983;28;20049;-81
2021/08/08 01:46:32;;;;;;;0.90;0.90;;;;;;;14.31;100.00;100050.81;6275792;28;20072;-81
2021/08/08 01:49:35;;;;;;;6.65;1.08;;;;;;;14.30;100.00;100054.41;6276130;28;20120;-81
2021/08/08 01:52:37;;;;;;;4.18;1.05;;;;;;;14.32;100.00;100049.00;6276242;28;20057;-82
2021/08/08 01:55:40;;;;;;;4.93;1.00;;;;;;;14.34;100.00;100049.72;6275562;28;20053;-81
2021/08/08 01:58:41;;;;;;;2.35;1.20;;;;;;;14.31;100.00;100050.81;6275584;28;20492;-81
2021/08/08 02:01:43;;;;;;;3.25;1.52;;;;;;;14.30;100.00;100056.22;6275986;28;20059;-82
2021/08/08 02:04:46;;;;;;;3.70;0.82;;;;;;;14.27;100.00;100061.75;6275272;28;20048;-81
2021/08/08 02:07:48;;;;;;;2.60;1.00;;;;;;;14.19;100.00;100065.84;6275443;28;20053;-81
2021/08/08 02:10:50;;;;;;;1.63;1.10;;;;;;;14.17;100.00;100069.56;6275217;28;20518;-81
2021/08/08 02:13:52;;;;;;;2.28;1.30;;;;;;;14.13;100.00;100070.78;6275536;28;20051;-81
2021/08/08 02:16:53;;;;;;;2.15;1.15;;;;;;;14.11;100.00;100075.34;6275723;28;20041;-81
2021/08/08 02:19:55;;;;;;;3.38;1.27;;;;;;;14.10;100.00;100074.50;6275345;28;20059;-80
2021/08/08 02:22:56;;;;;;;3.10;1.73;;;;;;;14.10;100.00;100076.31;6275356;28;20059;-81
2021/08/08 02:25:59;;;;;;;6.75;1.38;;;;;;;14.11;100.00;100081.44;6274389;28;20479;-81
2021/08/08 02:29:00;;;;;;;5.03;1.15;;;;;;;14.13;100.00;100073.44;6275534;28;20052;-82
2021/08/08 02:32:01;;;;;;;3.83;1.10;;;;;;;14.17;100.00;100073.06;6275536;28;20419;-82
2021/08/08 02:35:03;;;;;;;3.30;1.17;;;;;;;14.11;100.00;100062.97;6274982;28;20045;-81
2021/08/08 02:38:05;;;;;;;7.43;0.90;;;;;;;14.16;100.00;100070.53;6275345;28;20048;-82
2021/08/08 02:41:09;;;;;;;6.55;1.30;;;;;;;14.10;100.00;100074.50;6275012;28;20045;-83
2021/08/08 02:44:10;;;;;;;3.08;1.20;;;;;;;14.08;100.00;100067.63;6275401;28;20454;-82
2021/08/08 02:47:12;;;;;;;1.67;1.02;;;;;;;14.16;100.00;100073.16;6274777;28;20048;-81
2021/08/08 02:50:14;;;;;;;3.78;1.10;;;;;;;14.17;100.00;100069.56;6275103;28;20057;-81
2021/08/08 02:53:15;;;;;;;1.95;1.25;;;;;;;14.19;100.00;100080.84;6274710;28;20053;-82
2021/08/08 02:56:18;;;;;;;4.97;1.10;;;;;;;14.19;100.00;100076.41;6274427;28;20408;-82
2021/08/08 02:59:19;;;;;;;1.38;1.10;;;;;;;14.26;100.00;100079.44;6274648;28;20053;-82
2021/08/08 03:02:21;;;;;;;5.55;1.10;;;;;;;14.27;100.00;100088.19;6275050;28;20052;-82
2021/08/08 03:05:22;;;;;;;4.10;0.80;;;;;;;14.27;100.00;100089.03;6274094;28;20055;-80
2021/08/08 03:08:23;;;;;;;3.65;1.10;;;;;;;14.33;100.00;100092.97;6273582;28;20060;-81
2021/08/08 03:11:26;;;;;;;4.00;1.10;;;;;;;14.32;100.00;100093.94;6273654;28;20419;-81
2021/08/08 03:14:27;;;;;;;5.40;1.50;;;;;;;14.31;100.00;100095.75;6274190;28;20056;-81
2021/08/08 03:17:29;;;;;;;2.33;0.98;;;;;;;14.32;100.00;100094.78;6273531;28;20052;-82
2021/08/08 03:20:30;;;;;;;4.70;1.20;;;;;;;14.32;100.00;100096.59;6273849;28;20056;-82
2021/08/08 03:23:31;;;;;;;3.10;1.15;;;;;;;14.36;100.00;100092.75;6273772;28;20420;-83
2021/08/08 03:26:34;;;;;;;1.98;0.90;;;;;;;14.39;100.00;100100.41;6274199;28;20071;-82
2021/08/08 03:29:36;;;;;;;3.13;1.10;;;;;;;14.38;100.00;100107.50;6274192;28;20052;-82
2021/08/08 03:32:37;;;;;;;4.68;1.25;;;;;;;14.36;100.00;100108.59;6274425;28;20496;-82
2021/08/08 03:35:39;;;;;;;2.35;1.00;;;;;;;14.39;100.00;100109.19;6274354;28;20052;-83
2021/08/08 03:38:41;;;;;;;2.65;1.02;;;;;;;14.29;100.00;100108.22;6275106;28;20052;-83
2021/08/08 03:41:43;;;;;;;4.55;1.38;;;;;;;14.22;100.00;100104.41;6274681;28;20045;-82
2021/08/08 03:44:45;;;;;;;2.00;1.15;;;;;;;14.20;100.00;100107.16;6273988;28;20053;-83
2021/08/08 03:47:46;;;;;;;6.53;1.40;;;;;;;14.20;100.00;100114.25;6273620;28;20049;-82
2021/08/08 03:50:48;;;;;;;6.82;1.50;;;;;;;14.19;100.00;100121.34;6273208;28;20053;-82
2021/08/08 03:53:49;;;;;;;3.60;1.35;;;;;;;14.24;100.00;100120.13;6272819;28;20041;-81
2021/08/08 03:56:52;;;;;;;2.25;1.50;;;;;;;14.24;100.00;100118.31;6273558;28;20052;-82
2021/08/08 03:59:53;;;;;;;3.55;1.38;;;;;;;14.33;100.00;100117.59;6273467;28;20056;-81
2021/08/08 04:02:55;;;;;;;9.15;1.50;;;;;;;14.34;100.00;100119.28;6274033;28;20060;-83
2021/08/08 04:05:57;;;;;;;10.63;1.92;;;;;;;14.39;100.00;100130.31;6273963;28;20045;-83
2021/08/08 04:08:58;;;;;;;6.55;1.60;;;;;;;14.41;100.00;100135.50;6275330;28;20049;-83
2021/08/08 04:12:01;;;;;;;2.03;1.45;;;;;;;14.46;100.00;100131.53;6275004;28;20045;-82
2021/08/08 04:15:02;;;;;;;5.25;2.00;;;;;;;14.41;100.00;100131.06;6274448;28;20499;-85
2021/08/08 04:18:04;;;;;;;8.20;2.17;;;;;;;14.37;100.00;100132.25;6277080;28;20092;-85
2021/08/08 04:21:05;;;;;;;5.50;1.92;;;;;;;14.31;100.00;100130.13;6274693;28;20045;-84
2021/08/08 04:24:07;;;;;;;4.30;2.45;;;;;;;14.31;100.00;100127.47;6274206;28;20061;-84
2021/08/08 04:27:10;;;;;;;8.20;2.55;;;;;;;14.29;100.00;100126.72;6274316;28;20049;-83
2021/08/08 04:30:12;;;;;;;2.88;2.03;;;;;;;14.29;100.00;100139.94;6273538;28;20049;-83
2021/08/08 04:33:13;;;;;;;7.10;2.30;;;;;;;14.33;100.00;100133.47;6278129;28;20041;-83
2021/08/08 04:36:15;;;;;;;6.68;2.90;;;;;;;14.28;100.00;100135.63;6277142;28;20062;-83
2021/08/08 04:39:16;;;;;;;5.20;2.70;;;;;;;14.31;100.00;100142.50;6277299;28;20049;-82
2021/08/08 04:42:19;;;;;;;6.20;2.38;;;;;;;14.34;100.00;100143.06;6277720;28;20044;-83
2021/08/08 04:45:21;;;;;;;5.32;2.47;;;;;;;14.41;100.00;100141.63;6276582;28;20049;-85
2021/08/08 04:48:22;;;;;;;4.90;2.15;;;;;;;14.34;100.00;100147.53;6275536;28;20129;-84
2021/08/08 04:51:24;;;;;;;3.53;2.33;;;;;;;14.37;100.00;100150.75;6275353;28;20060;-83
2021/08/08 04:54:26;;;;;;;4.93;2.10;;;;;;;14.38;100.00;100148.97;6274911;28;20049;-83
2021/08/08 04:57:28;;;;;;;7.80;2.60;;;;;;;14.41;100.00;100149.56;6275081;28;20074;-82
2021/08/08 05:00:30;;;;;;;10.60;2.47;;;;;;;14.45;100.00;100152.81;6275045;28;20056;-82
2021/08/08 05:03:31;;;;;;;5.72;2.50;;;;;;;14.51;100.00;100164.75;6274775;28;20151;-82
2021/08/08 05:06:33;;;;;;;5.38;3.03;;;;;;;14.52;100.00;100159.31;6275683;28;20041;-81
2021/08/08 05:09:34;;;;;;;6.90;2.90;;;;;;;14.56;100.00;100162.56;6274826;28;20500;-81
2021/08/08 05:12:37;;;;;;;6.18;2.90;;;;;;;14.61;100.00;100165.69;6274643;28;20052;-81
2021/08/08 05:15:39;;;;;;;5.40;2.95;;;;;;;14.65;100.00;100162.66;6274762;28;20049;-81
2021/08/08 05:18:40;;;;;;;6.70;3.60;;;;;;;14.71;100.00;100166.63;6264889;28;20053;-81
2021/08/08 05:21:42;;;;;;;6.32;3.53;;;;;;;14.69;100.00;100176.50;6236774;28;20076;-80
2021/08/08 05:24:43;;;;;;;5.72;3.40;;;;;;;14.78;100.00;100172.28;6235718;28;20046;-81
2021/08/08 05:27:46;;;;;;;6.60;3.72;;;;;;;14.85;100.00;100176.09;6236312;28;20038;-79
2021/08/08 05:30:47;;;;;;;8.30;3.88;;;;;;;14.92;100.00;100172.84;6246114;28;20389;-83
2021/08/08 05:33:48;;;;;;;9.50;3.85;;;;;;;14.92;100.00;100182.59;6250354;28;20060;-82
2021/08/08 05:36:50;;;;;;;10.60;4.32;;;;;;;15.03;100.00;100187.00;6251307;28;20049;-77
2021/08/08 05:39:51;;;;;;;9.60;4.38;;;;;;;15.09;100.00;100181.25;6250832;28;20053;-80
2021/08/08 05:42:54;;;;;;;6.28;3.78;;;;;;;15.06;100.00;100187.59;6236682;28;20050;-78
2021/08/08 05:45:55;;;;;;;7.15;4.25;;;;;;;15.10;100.00;100189.03;6232527;28;20049;-82
2021/08/08 05:48:57;;;;;;;10.52;3.90;;;;;;;15.16;100.00;100195.63;6235829;28;20042;-81
2021/08/08 05:51:58;;;;;;;10.80;4.80;;;;;;;15.18;100.00;100188.44;6249683;28;20072;-81
2021/08/08 05:55:00;;;;;;;8.80;4.00;;;;;;;15.18;100.00;100206.97;6249989;28;20053;-77
2021/08/08 05:58:03;;;;;;;13.93;4.03;;;;;;;15.25;100.00;100202.00;6250556;28;20049;-82
2021/08/08 06:01:05;;;;;;;15.52;4.63;;;;;;;15.24;100.00;100209.09;6250583;28;20050;-81
2021/08/08 06:04:06;;;;;;;8.10;3.67;;;;;;;15.27;100.00;100206.22;6250619;28;20058;-78
2021/08/08 06:07:07;;;;;;;16.13;3.70;;;;;;;15.37;100.00;100211.59;6250342;28;20045;-82
2021/08/08 06:10:09;;;;;;;9.80;4.22;;;;;;;15.30;100.00;100207.75;6249760;28;20046;-80
2021/08/08 06:13:12;;;;;;;8.48;4.05;;;;;;;15.25;100.00;100223.16;6247245;28;20045;-81
2021/08/08 06:16:13;;;;;;;9.82;4.05;;;;;;;15.28;100.00;100225.56;6236209;28;20451;-83
2021/08/08 06:19:14;;;;;;;10.98;4.20;;;;;;;15.26;100.00;100243.38;6235554;28;20046;-79
2021/08/08 06:22:16;;;;;;;14.77;4.18;;;;;;;15.17;100.00;100260.84;6235652;28;20050;-76
2021/08/08 06:25:18;;;;;;;14.20;4.05;;;;;;;15.07;100.00;100249.31;6235798;28;20054;-76
2021/08/08 06:28:20;;;;;;;13.38;4.70;;;;;;;15.00;100.00;100258.72;6235353;28;20053;-81
2021/08/08 06:31:22;;;;;;;10.20;4.50;;;;;;;14.88;100.00;100263.16;6228008;28;20054;-76
2021/08/08 06:34:23;;;;;;;15.77;4.80;;;;;;;14.75;100.00;100268.56;6224560;28;20056;-80
2021/08/08 06:37:24;;;;;;;13.13;5.25;;;;;;;14.70;100.00;100268.94;6225851;28;20053;-79
2021/08/08 06:40:26;;;;;;;12.20;5.63;;;;;;;14.66;100.00;100278.06;6225690;28;20046;-81
2021/08/08 06:43:29;;;;;;;13.10;5.47;;;;;;;14.69;100.00;100284.94;6225088;28;20057;-80
2021/08/08 06:46:30;;;;;;;15.90;5.80;;;;;;;14.61;100.00;100285.53;6224380;28;20425;-80
2021/08/08 06:49:32;;;;;;;20.83;6.97;;;;;;;14.59;100.00;100292.75;6224831;28;20054;-80
2021/08/08 06:52:33;;;;;;;9.20;6.30;;;;;;;14.55;100.00;100293.09;6224759;28;20069;-80
2021/08/08 06:55:34;;;;;;;16.25;6.03;;;;;;;14.54;100.00;100300.19;6224908;28;20057;-81
2021/08/08 06:58:37;;;;;;;13.25;6.15;;;;;;;14.54;100.00;100307.28;6224635;28;20049;-80
2021/08/08 07:01:38;;;;;;;10.82;5.85;;;;;;;14.54;100.00;100307.28;6264975;23;20053;-75
2021/08/08 07:04:40;;;;;;;17.80;6.47;;;;;;;14.55;100.00;100308.97;6240002;28;20045;-75
2021/08/08 07:07:41;;;;;;;13.27;5.82;;;;;;;14.59;100.00;100308.63;6222275;28;20421;-76
2021/08/08 07:10:42;;;;;;;15.55;6.35;;;;;;;14.56;100.00;100310.66;6243812;28;20045;-75
2021/08/08 07:13:45;;;;;;;9.68;5.55;;;;;;;14.60;100.00;100312.94;6257987;28;20044;-76
2021/08/08 07:16:46;;;;;;;15.10;6.70;;;;;;;14.65;100.00;100320.50;6263245;28;20519;-75
2021/08/08 07:19:48;;;;;;;11.82;5.30;;;;;;;14.68;100.00;100320.28;6267560;28;20144;-76
2021/08/08 07:22:49;;;;;;;13.32;5.55;;;;;;;14.75;100.00;100329.41;6270187;28;20432;-75
2021/08/08 07:25:50;;;;;;;11.65;4.78;;;;;;;14.80;100.00;100329.06;6269446;28;20045;-75
2021/08/08 07:28:53;;;;;;;13.48;4.70;;;;;;;14.91;100.00;100337.03;6271375;28;20053;-75
2021/08/08 07:31:55;;;;;;;11.93;5.35;;;;;;;15.04;100.00;100331.63;6270080;28;20503;-76
2021/08/08 07:34:56;;;;;;;11.18;4.38;;;;;;;15.02;100.00;100336.16;6270769;28;20052;-75
2021/08/08 07:37:58;;;;;;;10.55;4.45;;;;;;;15.03;100.00;100336.03;6271330;28;20492;-76
2021/08/08 07:41:00;;;;;;;12.60;4.35;;;;;;;15.11;100.00;100346.03;6271367;28;20075;-75
2021/08/08 07:44:03;;;;;;;10.55;4.13;;;;;;;15.13;100.00;100352.91;6271149;28;20055;-75
2021/08/08 07:47:04;;;;;;;13.23;3.65;;;;;;;15.16;100.00;100354.44;6271376;28;20045;-76
2021/08/08 07:50:06;;;;;;;14.80;4.68;;;;;;;15.13;100.00;100360.00;6271167;28;20393;-75
2021/08/08 07:53:07;;;;;;;17.42;4.35;;;;;;;15.12;100.00;100366.25;6245431;28;20060;-76
2021/08/08 07:56:09;;;;;;;9.40;3.97;;;;;;;15.13;100.00;100368.78;6247694;28;20049;-77
2021/08/08 07:59:12;;;;;;;14.25;3.40;;;;;;;15.19;100.00;100370.09;6271929;28;20049;-75
2021/08/08 08:02:13;;;;;;;14.13;3.80;;;;;;;15.30;100.00;100369.25;6255219;28;20053;-78
2021/08/08 08:05:15;;;;;;;15.15;4.00;;;;;;;15.21;100.00;100389.34;6255996;28;20046;-77
2021/08/08 08:08:16;;;;;;;14.98;3.80;;;;;;;15.27;100.00;100388.88;6258826;28;20049;-76
2021/08/08 08:11:17;;;;;;;15.65;3.00;;;;;;;15.29;100.00;100386.94;6254187;28;20057;-76
2021/08/08 08:14:20;;;;;;;9.10;3.55;;;;;;;15.38;100.00;100388.84;6245826;28;20132;-77
2021/08/08 08:17:21;;;;;;;11.57;3.65;;;;;;;15.48;100.00;100395.09;6238793;28;20057;-77
2021/08/08 08:20:23;;;;;;;6.47;2.63;;;;;;;15.56;100.00;100398.97;6235603;28;20053;-77
2021/08/08 08:23:24;;;;;;;10.93;3.40;;;;;;;15.66;100.00;100395.47;6235411;28;20053;-75
2021/08/08 08:26:26;;;;;;;6.63;3.03;;;;;;;15.81;100.00;100404.03;6235716;28;20049;-76
2021/08/08 08:29:28;;;;;;;13.57;3.63;;;;;;;15.91;100.00;100406.75;6229744;28;20076;-78
2021/08/08 08:32:30;;;;;;;10.00;2.90;;;;;;;15.98;98.46;100398.16;6231026;28;20115;-80
2021/08/08 08:35:31;;;;;;;10.50;2.90;;;;;;;15.97;99.86;100409.75;6229996;28;20056;-76
2021/08/08 08:38:33;;;;;;;8.32;2.85;;;;;;;16.01;100.00;100409.50;6228567;28;20057;-80
2021/08/08 08:41:36;;;;;;;12.07;3.65;;;;;;;15.99;99.88;100412.28;6229434;28;20053;-76
2021/08/08 08:44:39;;;;;;;15.98;3.25;;;;;;;16.12;98.68;100420.06;6227564;28;20046;-77
2021/08/08 08:47:42;;;;;;;9.40;3.10;;;;;;;16.23;97.19;100428.00;6227775;28;20431;-77
2021/08/08 08:50:44;;;;;;;7.95;2.92;;;;;;;16.21;94.82;100425.47;6235741;28;20060;-77
2021/08/08 08:53:47;;;;;;;16.75;3.75;;;;;;;16.20;96.98;100437.03;6251631;28;20052;-79
2021/08/08 08:56:49;;;;;;;10.07;3.67;;;;;;;16.22;96.21;100436.91;6250104;28;20045;-76
2021/08/08 08:59:53;;;;;;;13.65;3.97;;;;;;;16.29;95.94;100443.38;6253499;28;20393;-77
2021/08/08 09:02:54;;;;;;;11.57;3.20;;;;;;;16.40;92.71;100446.00;6250413;28;20041;-76
2021/08/08 09:05:55;;;;;;;13.25;3.80;;;;;;;16.35;94.48;100448.22;6249766;28;20053;-75
2021/08/08 09:08:57;;;;;;;16.23;3.85;;;;;;;16.38;94.77;100447.09;6263858;28;20067;-76
2021/08/08 09:11:58;;;;;;;13.05;3.75;;;;;;;16.47;93.02;100449.81;6258748;28;20041;-76
2021/08/08 09:15:04;;;;;;;13.95;4.15;;;;;;;16.43;92.62;100451.03;6264079;28;20049;-76
2021/08/08 09:18:16;;;;;;;12.68;4.20;;;;;;;16.52;89.85;100449.44;6274271;28;20052;-76
2021/08/08 09:21:17;;;;;;;12.98;3.95;;;;;;;16.52;91.91;100461.88;6274382;28;20052;-75
2021/08/08 09:24:24;;;;;;;14.18;4.13;;;;;;;16.48;93.80;100467.41;6263663;28;20056;-75
2021/08/08 09:27:34;;;;;;;12.38;3.90;;;;;;;16.49;93.45;100460.31;6249514;28;20053;-76
2021/08/08 09:30:39;;;;;;;9.82;4.72;;;;;;;16.55;91.51;100467.78;6267107;28;20048;-77
2021/08/08 09:33:42;;;;;;;10.93;3.70;;;;;;;16.64;89.78;100474.13;6259614;28;20420;-76
2021/08/08 09:36:44;;;;;;;12.68;4.20;;;;;;;16.78;89.22;100467.69;6273816;28;20040;-74
2021/08/08 09:39:50;;;;;;;11.05;4.25;;;;;;;16.93;90.04;100479.66;6268911;28;20041;-75
2021/08/08 09:42:52;;;;;;;11.05;3.88;;;;;;;17.14;89.03;100469.91;6253746;28;20041;-75
2021/08/08 09:45:55;;;;;;;14.57;4.05;;;;;;;17.41;88.38;100479.13;6249481;28;20049;-75
2021/08/08 09:49:07;;;;;;;11.13;3.80;;;;;;;17.55;89.44;100468.16;6249935;28;20053;-78
2021/08/08 09:52:08;;;;;;;12.15;3.92;;;;;;;17.62;85.28;100479.06;6252388;28;20591;-78
2021/08/08 09:55:22;;;;;;;12.90;3.97;;;;;;;17.50;84.34;100487.16;6249531;28;20048;-79
2021/08/08 09:58:24;;;;;;;14.93;4.20;;;;;;;17.46;89.64;100484.88;6253905;28;20053;-78
2021/08/08 10:01:27;;;;;;;12.63;4.28;;;;;;;17.69;86.63;100470.44;6253670;28;20053;-78
2021/08/08 10:04:29;;;;;;;17.40;4.30;;;;;;;17.72;84.69;100487.94;6250790;28;20053;-77
2021/08/08 10:07:35;;;;;;;12.65;3.55;;;;;;;17.77;85.04;100490.22;6252405;28;20139;-77
2021/08/08 10:10:37;;;;;;;10.70;3.10;;;;;;;17.83;81.05;100501.16;6250876;28;20053;-81
2021/08/08 10:13:47;;;;;;;11.70;4.03;;;;;;;17.72;81.90;100510.03;6249788;28;20049;-78
2021/08/08 10:16:50;;;;;;;17.05;4.15;;;;;;;17.82;82.71;100511.94;6248773;28;20053;-77
2021/08/08 10:19:55;;;;;;;9.82;3.50;;;;;;;17.94;83.83;100510.84;6248828;28;20049;-77
2021/08/08 10:22:58;;;;;;;11.57;3.42;;;;;;;17.97;81.03;100507.91;6250310;28;20507;-77
2021/08/08 10:25:59;;;;;;;12.95;4.05;;;;;;;17.94;78.43;100522.34;6247964;28;20057;-77
2021/08/08 10:29:01;;;;;;;22.95;4.65;;;;;;;17.82;79.04;100519.91;6250264;28;20049;-78
2021/08/08 10:32:04;;;;;;;13.30;3.83;;;;;;;17.67;80.87;100508.78;6250841;28;20049;-82
2021/08/08 10:35:12;;;;;;;9.73;3.22;;;;;;;17.76;81.94;100529.25;6253445;28;20447;-76
2021/08/08 10:38:16;;;;;;;17.73;3.60;;;;;;;17.72;83.28;100531.31;6250587;28;20512;-77
2021/08/08 10:41:17;;;;;;;9.75;3.95;;;;;;;17.63;83.91;100525.94;6252340;28;20046;-78
2021/08/08 10:44:20;;;;;;;11.85;3.65;;;;;;;17.54;84.53;100530.25;6249486;28;20045;-79
2021/08/08 10:47:27;;;;;;;8.52;3.05;;;;;;;17.55;82.54;100542.53;6250088;28;20060;-77
2021/08/08 10:50:40;;;;;;;11.02;3.33;;;;;;;17.58;83.63;100541.47;6249656;28;20056;-79
2021/08/08 10:53:42;;;;;;;15.35;3.70;;;;;;;17.83;82.69;100550.81;6247242;28;20053;-77
2021/08/08 10:56:45;;;;;;;15.73;4.53;;;;;;;17.84;83.04;100542.69;6247032;28;20053;-78
2021/08/08 10:59:48;;;;;;;9.85;3.40;;;;;;;17.91;81.02;100545.69;6232095;28;20052;-78
2021/08/08 11:02:51;;;;;;;9.40;3.30;;;;;;;18.03;81.28;100546.41;6229066;28;20052;-79
2021/08/08 11:05:52;;;;;;;13.52;2.88;;;;;;;18.27;75.70;100538.09;6247381;28;20049;-76
2021/08/08 11:08:56;;;;;;;15.38;3.30;;;;;;;18.24;75.25;100534.72;6246743;28;20054;-77
2021/08/08 11:11:57;;;;;;;8.23;2.60;;;;;;;18.48;74.73;100537.00;6238168;28;20063;-76
2021/08/08 11:14:59;;;;;;;13.73;2.72;;;;;;;18.88;72.90;100536.09;6243837;28;20052;-78
2021/08/08 11:18:02;;;;;;;7.97;2.85;;;;;;;18.95;68.58;100539.88;6244907;28;20421;-77
2021/08/08 11:21:11;;;;;;;6.88;2.42;;;;;;;19.07;68.56;100545.88;6233707;28;20049;-83
2021/08/08 11:24:13;;;;;;;7.07;2.47;;;;;;;18.95;71.20;100555.84;6232893;28;20132;-78
2021/08/08 11:27:14;;;;;;;8.82;2.70;;;;;;;18.77;71.70;100546.88;6235592;28;20053;-79
2021/08/08 11:30:18;;;;;;;6.97;2.45;;;;;;;18.71;69.31;100560.72;6233775;28;20038;-83
2021/08/08 11:33:23;;;;;;;8.52;2.88;;;;;;;18.85;71.83;100557.69;6237364;28;20052;-78
2021/08/08 11:36:30;;;;;;;14.90;2.72;;;;;;;19.16;70.63;100557.50;6244382;28;20056;-78
2021/08/08 11:39:34;;;;;;;7.63;2.75;;;;;;;19.61;69.06;100556.91;6242388;28;20057;-76
2021/08/08 11:42:35;;;;;;;16.63;2.85;;;;;;;19.49;68.46;100572.22;6229827;28;20050;-78
2021/08/08 11:45:39;;;;;;;10.20;2.75;;;;;;;19.17;69.51;100570.72;6237595;28;20431;-78
2021/08/08 11:48:42;;;;;;;7.10;2.45;;;;;;;19.11;67.70;100568.59;6229258;28;20050;-80
2021/08/08 11:51:43;;;;;;;9.90;2.40;;;;;;;18.96;68.90;100578.84;6244164;28;20057;-79
2021/08/08 11:54:46;;;;;;;9.55;2.40;;;;;;;18.96;71.65;100580.66;6255008;28;20045;-78
2021/08/08 11:57:47;;;;;;;8.32;2.72;;;;;;;19.27;71.21;100589.34;6233307;28;20420;-80
2021/08/08 12:00:49;;;;;;;8.10;3.08;;;;;;;19.12;70.24;100588.94;6230483;28;20054;-79
2021/08/08 12:03:52;;;;;;;13.60;3.55;;;;;;;19.06;71.60;100594.81;6238337;28;20045;-78
2021/08/08 12:06:54;;;;;;;10.85;3.95;;;;;;;19.05;68.64;100597.63;6243298;28;20045;-77
2021/08/08 12:09:56;;;;;;;9.57;3.80;;;;;;;18.98;70.86;100595.50;6265337;28;20259;-77
2021/08/08 12:12:58;;;;;;;7.40;3.20;;;;;;;19.12;67.99;100596.06;6276505;28;20627;-77
2021/08/08 12:16:10;;;;;;;7.20;3.03;;;;;;;19.11;70.26;100597.91;6279039;28;20060;-77
2021/08/08 12:19:13;;;;;;;11.15;4.07;;;;;;;19.24;67.77;100595.78;6280404;28;20063;-77
2021/08/08 12:22:16;;;;;;;14.10;5.68;;;;;;;19.31;68.50;100605.91;6278498;28;20060;-78
2021/08/08 12:25:21;;;;;;;10.73;4.30;;;;;;;19.27;67.65;100608.00;6277138;28;20049;-77
2021/08/08 12:28:24;;;;;;;10.55;3.92;;;;;;;19.16;68.14;100608.13;6264706;28;20040;-79
2021/08/08 12:31:34;;;;;;;9.48;4.00;;;;;;;19.07;69.71;100612.47;6279611;28;20071;-78
2021/08/08 12:34:37;;;;;;;8.68;2.88;;;;;;;19.14;68.57;100610.94;6284516;28;20045;-78
2021/08/08 12:37:40;;;;;;;9.30;3.30;;;;;;;19.14;67.93;100605.63;6276474;28;20045;-77
2021/08/08 12:40:46;;;;;;;11.63;3.25;;;;;;;19.05;68.55;100608.28;6280363;28;20045;-77
2021/08/08 12:43:47;;;;;;;11.18;3.92;;;;;;;18.93;70.11;100599.56;6277905;28;20056;-78
2021/08/08 12:47:00;;;;;;;11.68;3.05;;;;;;;18.85;69.11;100607.41;6278828;28;20044;-77
2021/08/08 12:50:15;;;;;;;7.43;3.20;;;;;;;18.76;70.43;100614.44;6260269;28;20041;-77
2021/08/08 12:53:16;;;;;;;12.20;3.22;;;;;;;18.77;72.10;100616.13;6250387;28;20057;-78
2021/08/08 12:56:17;;;;;;;9.48;3.08;;;;;;;18.86;69.87;100625.94;6250540;28;20053;-78
2021/08/08 12:59:20;;;;;;;5.75;2.70;;;;;;;18.98;70.90;100635.47;6250715;28;20047;-79
2021/08/08 13:02:21;;;;;;;5.80;2.20;;;;;;;19.16;65.88;100630.28;6267790;22;20500;-77
2021/08/08 13:05:24;;;;;;;15.30;2.40;;;;;;;19.32;65.02;100634.22;6233900;28;20049;-75
2021/08/08 13:08:25;;;;;;;11.40;2.92;;;;;;;19.43;65.40;100637.56;6247020;28;20053;-77
2021/08/08 13:11:27;;;;;;;6.95;2.60;;;;;;;19.65;64.40;100630.28;6252187;28;20401;-78
2021/08/08 13:14:28;;;;;;;10.02;2.28;;;;;;;19.77;63.50;100639.81;6256456;28;20056;-78
2021/08/08 13:17:29;;;;;;;7.57;1.88;;;;;;;19.97;62.78;100628.09;6270100;28;20050;-78
2021/08/08 13:20:32;;;;;;;10.00;2.15;;;;;;;20.43;60.27;100634.34;6261050;28;20045;-77
2021/08/08 13:23:33;;;;;;;9.60;2.67;;;;;;;21.09;58.17;100643.13;6249927;28;20045;-77
2021/08/08 13:26:35;;;;;;;10.30;2.28;;;;;;;21.27;55.48;100646.63;6243261;28;20057;-75
2021/08/08 13:29:36;;;;;;;6.78;2.55;;;;;;;21.29;56.77;100653.50;6237664;28;20042;-78
2021/08/08 13:32:37;;;;;;;9.52;2.20;;;;;;;21.08;55.18;100654.81;6240798;28;20046;-77
2021/08/08 13:35:40;;;;;;;8.88;2.35;;;;;;;20.77;56.35;100645.31;6236003;28;20076;-78
2021/08/08 13:38:41;;;;;;;5.25;1.90;;;;;;;20.36;56.46;100667.97;6242736;28;20492;-75
2021/08/08 13:41:44;;;;;;;6.65;2.20;;;;;;;20.32;55.99;100677.25;6235153;28;20053;-76
2021/08/08 13:44:45;;;;;;;5.55;1.58;;;;;;;20.25;55.00;100668.16;6236574;28;20050;-76
2021/08/08 13:47:46;;;;;;;6.32;1.98;;;;;;;20.18;56.14;100672.41;6232399;28;20052;-77
2021/08/08 13:50:49;;;;;;;8.65;2.10;;;;;;;20.37;55.30;100685.66;6236136;28;20052;-77
2021/08/08 13:53:50;;;;;;;8.75;1.77;;;;;;;20.65;56.73;100677.72;6246120;28;20049;-80
2021/08/08 13:56:52;;;;;;;6.57;1.90;;;;;;;20.85;55.52;100673.94;6259062;28;20412;-79
2021/08/08 13:59:53;;;;;;;6.40;1.98;;;;;;;21.14;55.61;100694.28;6252460;28;20049;-77